createdAt,value
2023-05-01T00:02:29.238Z,11.54
2023-05-01T00:08:49.170Z,11.51
2023-05-01T00:15:12.201Z,11.51
2023-05-01T00:21:32.150Z,11.48
2023-05-01T00:27:55.182Z,11.49
2023-05-01T00:34:15.190Z,11.52
2023-05-01T00:40:38.187Z,11.56
2023-05-01T00:46:58.173Z,11.53
2023-05-01T00:53:21.221Z,11.49
2023-05-01T00:59:41.151Z,11.44
2023-05-01T01:06:04.242Z,11.42
2023-05-01T01:12:24.218Z,11.41
2023-05-01T01:18:47.190Z,11.39
2023-05-01T01:25:07.148Z,11.38
2023-05-01T01:31:30.297Z,11.36
2023-05-01T01:37:50.172Z,11.31
2023-05-01T01:44:13.222Z,11.28
2023-05-01T01:50:33.168Z,11.24
2023-05-01T01:56:56.196Z,11.2
2023-05-01T02:03:16.221Z,11.17
2023-05-01T02:09:39.208Z,11.19
2023-05-01T02:15:59.173Z,11.23
2023-05-01T02:22:22.273Z,11.25
2023-05-01T02:28:42.173Z,11.24
2023-05-01T02:35:05.190Z,11.25
2023-05-01T02:41:25.159Z,11.21
2023-05-01T02:47:48.281Z,11.13
2023-05-01T02:54:08.154Z,11.06
2023-05-01T03:00:31.197Z,10.99
2023-05-01T03:06:51.340Z,10.92
2023-05-01T03:13:14.167Z,10.81
2023-05-01T03:19:34.178Z,10.75
2023-05-01T03:25:57.234Z,10.71
2023-05-01T03:32:17.195Z,10.71
2023-05-01T03:50:08.164Z,10.76
2023-05-01T03:56:28.142Z,10.75
2023-05-01T04:02:51.410Z,10.75
2023-05-01T04:09:11.204Z,10.74
2023-05-01T04:15:34.175Z,10.73
2023-05-01T04:21:54.192Z,10.72
2023-05-01T04:28:17.367Z,10.69
2023-05-01T04:34:37.182Z,10.71
2023-05-01T04:41:00.155Z,10.71
2023-05-01T04:47:20.394Z,10.74
2023-05-01T04:53:43.237Z,10.79
2023-05-01T05:00:03.197Z,10.87
2023-05-01T05:06:26.334Z,10.95
2023-05-01T05:12:46.173Z,11.03
2023-05-01T05:19:09.174Z,11.13
2023-05-01T05:25:29.227Z,11.26
2023-05-01T05:31:52.204Z,11.37
2023-05-01T05:38:12.183Z,11.46
2023-05-01T05:44:35.224Z,11.53
2023-05-01T05:50:55.177Z,11.62
2023-05-01T05:57:18.206Z,11.78
2023-05-01T06:03:38.229Z,11.99
2023-05-01T06:10:01.192Z,12.17
2023-05-01T06:16:21.213Z,12.32
2023-05-01T06:22:44.213Z,12.39
2023-05-01T06:29:04.185Z,12.48
2023-05-01T06:35:27.180Z,12.63
2023-05-01T06:41:47.221Z,12.76
2023-05-01T06:48:10.197Z,12.82
2023-05-01T06:54:30.163Z,12.92
2023-05-01T07:00:53.231Z,13.07
2023-05-01T07:07:13.161Z,13.21
2023-05-01T07:13:36.149Z,13.33
2023-05-01T07:19:56.443Z,13.47
2023-05-01T07:26:19.198Z,13.73
2023-05-01T07:32:39.181Z,14.03
2023-05-01T07:39:02.199Z,14.29
2023-05-01T07:45:22.178Z,14.46
2023-05-01T07:51:45.174Z,14.53
2023-05-01T07:58:05.182Z,14.62
2023-05-01T08:04:28.245Z,14.74
2023-05-01T08:10:48.176Z,14.89
2023-05-01T08:17:11.204Z,15.09
2023-05-01T08:23:31.201Z,15.29
2023-05-01T08:29:54.340Z,15.46
2023-05-01T08:36:14.217Z,15.58
2023-05-01T08:42:37.158Z,15.72
2023-05-01T08:48:57.182Z,15.92
2023-05-01T08:55:20.178Z,16.04
2023-05-01T09:01:40.225Z,16.15
2023-05-01T09:18:55.176Z,16.39
2023-05-01T09:25:15.153Z,16.68
2023-05-01T09:31:38.182Z,17.04
2023-05-01T09:37:58.199Z,17.32
2023-05-01T09:44:21.156Z,17.49
2023-05-01T09:50:41.161Z,17.72
2023-05-01T09:57:04.191Z,17.99
2023-05-01T10:03:24.223Z,18.37
2023-05-01T10:09:47.173Z,18.89
2023-05-01T10:16:07.194Z,19.25
2023-05-01T10:22:30.175Z,19.6
2023-05-01T10:28:50.210Z,19.95
2023-05-01T10:35:13.183Z,20.12
2023-05-01T10:41:33.182Z,20.16
2023-05-01T10:47:56.210Z,20.51
2023-05-01T10:54:16.211Z,20.88
2023-05-01T11:00:39.153Z,21.11
2023-05-01T11:06:59.183Z,21.02
2023-05-01T11:13:22.187Z,20.88
2023-05-01T11:19:42.150Z,20.54
2023-05-01T11:26:05.186Z,20.26
2023-05-01T11:32:25.276Z,20
2023-05-01T11:38:48.159Z,20.12
2023-05-01T11:45:08.174Z,20.44
2023-05-01T11:51:31.177Z,20.29
2023-05-01T11:57:51.180Z,20.28
2023-05-01T12:04:14.212Z,20.32
2023-05-01T12:10:35.489Z,20.42
2023-05-01T12:16:57.220Z,20.29
2023-05-01T12:23:17.153Z,20.54
2023-05-01T12:29:40.205Z,20.72
2023-05-01T12:36:00.180Z,21
2023-05-01T12:42:23.154Z,21.32
2023-05-01T12:48:43.238Z,21.61
2023-05-01T12:55:06.146Z,21.76
2023-05-01T13:01:26.208Z,21.69
2023-05-01T13:07:49.176Z,21.69
2023-05-01T13:14:09.146Z,21.34
2023-05-01T13:20:32.184Z,20.8
2023-05-01T13:26:52.176Z,20.76
2023-05-01T13:33:15.214Z,21.12
2023-05-01T13:39:35.147Z,21.35
2023-05-01T13:45:58.217Z,21.28
2023-05-01T13:52:18.159Z,20.92
2023-05-01T13:58:41.147Z,20.9
2023-05-01T14:05:01.548Z,20.92
2023-05-01T14:11:24.149Z,20.93
2023-05-01T14:17:44.179Z,20.86
2023-05-01T14:24:07.175Z,20.97
2023-05-01T14:30:27.138Z,20.95
2023-05-01T14:36:50.197Z,20.63
2023-05-01T14:43:10.232Z,20.19
2023-05-01T14:49:33.177Z,19.77
2023-05-01T15:05:41.176Z,18.57
2023-05-01T15:12:01.154Z,18.12
2023-05-01T15:18:24.204Z,17.49
2023-05-01T15:24:44.184Z,16.81
2023-05-01T15:31:07.225Z,16.12
2023-05-01T15:37:27.206Z,15.79
2023-05-01T15:43:50.208Z,15.64
2023-05-01T15:50:10.189Z,15.59
2023-05-01T15:56:33.156Z,15.54
2023-05-01T16:02:53.298Z,15.44
2023-05-01T16:09:16.274Z,15.38
2023-05-01T16:15:36.201Z,15.36
2023-05-01T16:21:59.210Z,15.26
2023-05-01T16:28:19.262Z,15.15
2023-05-01T16:34:42.317Z,14.97
2023-05-01T16:41:02.342Z,14.96
2023-05-01T16:47:25.390Z,14.88
2023-05-01T16:53:45.202Z,14.62
2023-05-01T17:00:08.239Z,14.45
2023-05-01T17:06:28.193Z,14.3
2023-05-01T17:12:51.266Z,14.27
2023-05-01T17:19:11.187Z,14.51
2023-05-01T17:25:34.176Z,14.6
2023-05-01T17:31:54.269Z,14.6
2023-05-01T17:38:17.173Z,14.49
2023-05-01T17:44:37.182Z,14.43
2023-05-01T17:51:00.160Z,14.47
2023-05-01T17:57:20.173Z,14.46
2023-05-01T18:03:43.292Z,14.44
2023-05-01T18:10:03.138Z,14.3
2023-05-01T18:16:26.279Z,14.15
2023-05-01T18:22:46.175Z,14.1
2023-05-01T18:29:09.217Z,13.99
2023-05-01T18:35:29.306Z,13.86
2023-05-01T18:41:52.162Z,13.76
2023-05-01T18:48:12.218Z,13.64
2023-05-01T18:54:35.172Z,13.56
2023-05-01T19:00:55.181Z,13.55
2023-05-01T19:07:18.168Z,13.48
2023-05-01T19:13:38.185Z,13.43
2023-05-01T19:20:01.510Z,13.44
2023-05-01T19:26:21.159Z,13.43
2023-05-01T19:32:44.219Z,13.35
2023-05-01T19:39:04.196Z,13.23
2023-05-01T19:45:27.146Z,13.09
2023-05-01T19:51:47.234Z,12.96
2023-05-01T19:58:10.156Z,12.85
2023-05-01T20:04:30.196Z,12.79
2023-05-01T20:10:53.185Z,12.79
2023-05-01T20:26:43.212Z,12.87
2023-05-01T20:33:06.248Z,12.8
2023-05-01T20:39:26.202Z,12.71
2023-05-01T20:45:49.228Z,12.67
2023-05-01T20:52:09.168Z,12.57
2023-05-01T20:58:32.204Z,12.43
2023-05-01T21:04:52.179Z,12.33
2023-05-01T21:11:15.197Z,12.16
2023-05-01T21:17:35.205Z,12.03
2023-05-01T21:23:58.172Z,11.93
2023-05-01T21:30:18.189Z,11.74
2023-05-01T21:36:41.148Z,11.7
2023-05-01T21:43:01.233Z,11.63
2023-05-01T21:49:24.151Z,11.44
2023-05-01T21:55:44.170Z,11.28
2023-05-01T22:20:02.460Z,11.1
2023-05-01T22:26:22.176Z,11.05
2023-05-01T22:32:45.231Z,10.96
2023-05-01T22:39:05.224Z,10.83
2023-05-01T22:45:28.159Z,10.68
2023-05-01T22:51:48.179Z,10.57
2023-05-01T22:58:11.176Z,10.43
2023-05-01T23:04:31.227Z,10.3
2023-05-01T23:10:54.156Z,10.21
2023-05-01T23:17:14.242Z,10.12
2023-05-01T23:23:37.156Z,10.08
2023-05-01T23:29:58.039Z,10.05
2023-05-01T23:36:20.252Z,9.99
2023-05-01T23:42:40.225Z,9.93
2023-05-01T23:49:03.176Z,9.92
2023-05-01T23:55:23.212Z,9.93
